LAS weather

McCarran International Airport
Las Vegas, Nevada, United States

Public forecast

Using degrees Fahrenheit for public forecast. Weather courtesy of forecast.io.

METAR (pilot weather report)

Retrieved 2017/03/28 12:56 UTC (51 minutes ago):

KLAS 281256Z 32018G24KT 10SM FEW200 13/M06 A3002

TAF (pilot weather forecast)

Retrieved 2017/03/28 12:30 UTC (1 hour ago):

TAF KLAS 281126Z 2812/2912 34020G30KT P6SM SKC FM282100 01012G18KT P6SM SKC FM290200 01010KT P6SM SKC